Chester, UT

12:45 AM MDT on August 28, 2014 (GMT -0600)
KUTSPRIN7 | Change Station
CLOSE
Current Station
Personal Weather Station
Location: Spring City, UT
Elevation: 5843 ft
Nearby Weather Stations

Elev 5843 ft 39.48 °N, 111.49 °W | Updated 17 seconds ago

Partly Cloudy
Partly Cloudy
52.0 °F
Feels Like 52.0 °F
N
0.0
Wind Variable Wind from East
Gusts 1.0 mph

Today
High -- | Low -- °F
--% Chance of Precip.
Yesterday
High -- | Low -- °F
Precip. -- in
6:50 AM 8:03 PM
Waxing Crescent, 7% visible
Pressure 30.19 in
Visibility 10.0 miles
Clouds Overcast 10000 ft
Dew Point 48 °F
Humidity 85%
Rainfall 0.00 in
Snow Depth Not available.
UV 0.0 out of 12
Pollen 7.70 out of 12
Air Quality Not available.
Flu Activity Not available.
METAR KPUC 280553Z AUTO 01006KT 10SM OVC100 14/08 A3029 RMK AO2 SLP223 60000 T01390078 10172 20139 50001

More Conditions Fewer Conditions

Pressure 30.19 in
Visibility 10.0 miles
Clouds Overcast 10000 ft
Dew Point 48 °F
Humidity 85%
Rainfall 0.00 in
Snow Depth Not available.
UV 0.0 out of 12
Pollen 7.70 out of 12
Air Quality Not available.
Flu Activity Not available.
METAR KPUC 280553Z AUTO 01006KT 10SM OVC100 14/08 A3029 RMK AO2 SLP223 60000 T01390078 10172 20139 50001

More Conditions Fewer Conditions

10-Day Weather Forecast

Almanac

Astronomy

Aug. 28, 2014 Rise Set
Actual Time 6:50 AM MDT 8:03 PM MDT
Civil Twilight 6:23 AM MDT 8:30 PM MDT
Nautical Twilight 5:49 AM MDT 9:04 PM MDT
Astronomical Twilight 5:15 AM MDT 9:38 PM MDT
Moon 9:45 AM MDT 9:30 PM MDT
Length of Visible Light 14h 07m
Length of Day
13h 12m
Tomorrow will be 2m 27s shorter.
Waxing Crescent, 7% of the Moon is Illuminated
Today
Waxing Crescent
Sep 2
First Quarter
Sep 8
Full
Sep 15
Last Quarter
Sep 24
New

Today's Extremes

State Highs State Lows

Community

WunderPhotos

Upload Photos

1,747,912 photos uploaded!

Nearby

Snow Depth

Station Depth Elevation
Seeley Creek 0 in 10000 ft
Red Pine Ridge 0 in 9200 ft
Mammoth-Cottonwood 0 in 8800 ft
Payson R.S. 0 in 8050 ft
White River #1 0 in 8550 ft

Earthquake Activity

City Distance Mag. Time & Date
No recent earthquake activity has been reported nearby.
Minimum magnitude displayed is 2.5.

Coastal Water Temperatures

Place Temperature
No Stations Reporting

Nearby Weather Stations